METAR Data
IDs: Format: Raw Decoded Include TAF

Data at: 0944 UTC 28 Sep 2021

LRTM 280930Z 06005KT 5000 -RA BR SCT003 BKN005 BKN010 15/15 Q1019